Crescent City, California
Current Conditions -  °F | °C
As of 6:56 AM on Friday 19 Dec 2014 (Local Time) from KCEC Reporting Station
Overcast Overcast  
Wind Chill: 52°   Ceiling: 2200
Heat Index: 52°   Visibility: 10mi
Dew Point: 50°   Wind: 8mph
Humidity: 93%   Direction: 100°E
Pressure: 30.04"   Gusts: NA
Location:  41.74°N, 124.16°W
Report Text: KCEC 191456Z AUTO 10007KT 070V150 10SM SCT016 BKN022 OVC027 11/10 A3004 RMK AO2 RAE46 SLP171 P0032 60051 T01110100 51013 $
Loading
Personal Weather Stations






























Interactive Weather Map New forecast layout! Learn more

10-Day Weather Forecast

Advertisements
Track Severe Weather on mobile